sensor_id;sensor_type;location;lat;lon;timestamp;temperature;humidity
50947;DHT22;36955;47.416;7.716;2022-08-03T00:00:56;21.10;99.90
50947;DHT22;36955;47.416;7.716;2022-08-03T00:03:22;21.00;99.90
50947;DHT22;36955;47.416;7.716;2022-08-03T00:05:48;21.00;99.90
50947;DHT22;36955;47.416;7.716;2022-08-03T00:08:14;20.90;99.90
50947;DHT22;36955;47.416;7.716;2022-08-03T00:10:40;20.80;99.90
50947;DHT22;36955;47.416;7.716;2022-08-03T00:13:06;20.80;99.90
50947;DHT22;36955;47.416;7.716;2022-08-03T00:15:32;20.70;99.90
50947;DHT22;36955;47.416;7.716;2022-08-03T00:17:58;20.60;99.90
50947;DHT22;36955;47.416;7.716;2022-08-03T00:20:24;20.50;99.90
50947;DHT22;36955;47.416;7.716;2022-08-03T00:22:51;20.50;99.90
50947;DHT22;36955;47.416;7.716;2022-08-03T00:25:17;20.40;99.90
50947;DHT22;36955;47.416;7.716;2022-08-03T00:27:43;20.40;99.90
50947;DHT22;36955;47.416;7.716;2022-08-03T00:30:09;20.20;99.90
50947;DHT22;36955;47.416;7.716;2022-08-03T00:32:35;20.10;99.90
50947;DHT22;36955;47.416;7.716;2022-08-03T00:35:01;20.00;99.90
50947;DHT22;36955;47.416;7.716;2022-08-03T00:37:27;19.90;99.90
50947;DHT22;36955;47.416;7.716;2022-08-03T00:39:53;19.80;99.90
50947;DHT22;36955;47.416;7.716;2022-08-03T00:42:19;19.80;99.90
50947;DHT22;36955;47.416;7.716;2022-08-03T00:44:46;19.80;99.90
50947;DHT22;36955;47.416;7.716;2022-08-03T00:47:12;19.70;99.90
50947;DHT22;36955;47.416;7.716;2022-08-03T00:49:39;19.60;99.90
50947;DHT22;36955;47.416;7.716;2022-08-03T00:52:08;19.50;99.90
50947;DHT22;36955;47.416;7.716;2022-08-03T00:54:36;19.50;99.90
50947;DHT22;36955;47.416;7.716;2022-08-03T00:57:03;19.40;99.90
50947;DHT22;36955;47.416;7.716;2022-08-03T00:59:30;19.30;99.90
50947;DHT22;36955;47.416;7.716;2022-08-03T01:01:56;19.30;99.90
50947;DHT22;36955;47.416;7.716;2022-08-03T01:04:22;19.30;99.90
50947;DHT22;36955;47.416;7.716;2022-08-03T01:07:05;19.40;99.90
50947;DHT22;36955;47.416;7.716;2022-08-03T01:09:56;19.40;99.90
50947;DHT22;36955;47.416;7.716;2022-08-03T01:12:31;19.40;99.90
50947;DHT22;36955;47.416;7.716;2022-08-03T01:15:18;19.40;99.90
50947;DHT22;36955;47.416;7.716;2022-08-03T01:20:45;19.40;99.90
50947;DHT22;36955;47.416;7.716;2022-08-03T01:23:32;19.40;99.90
50947;DHT22;36955;47.416;7.716;2022-08-03T01:26:07;19.40;99.90
50947;DHT22;36955;47.416;7.716;2022-08-03T01:31:46;19.20;99.90
50947;DHT22;36955;47.416;7.716;2022-08-03T01:34:14;19.10;99.90
50947;DHT22;36955;47.416;7.716;2022-08-03T01:36:50;19.10;99.90
50947;DHT22;36955;47.416;7.716;2022-08-03T01:39:18;19.00;99.90
50947;DHT22;36955;47.416;7.716;2022-08-03T01:41:50;19.10;99.90
50947;DHT22;36955;47.416;7.716;2022-08-03T01:44:20;19.00;99.90
50947;DHT22;36955;47.416;7.716;2022-08-03T01:46:47;19.10;99.90
50947;DHT22;36955;47.416;7.716;2022-08-03T01:49:15;19.10;99.90
50947;DHT22;36955;47.416;7.716;2022-08-03T01:51:43;19.10;99.90
50947;DHT22;36955;47.416;7.716;2022-08-03T01:54:10;19.00;99.90
50947;DHT22;36955;47.416;7.716;2022-08-03T01:56:39;19.10;99.90
50947;DHT22;36955;47.416;7.716;2022-08-03T01:59:07;19.00;99.90
50947;DHT22;36955;47.416;7.716;2022-08-03T02:01:35;19.00;99.90
50947;DHT22;36955;47.416;7.716;2022-08-03T02:04:03;19.00;99.90
50947;DHT22;36955;47.416;7.716;2022-08-03T02:06:31;18.90;99.90
50947;DHT22;36955;47.416;7.716;2022-08-03T02:08:59;18.90;99.90
50947;DHT22;36955;47.416;7.716;2022-08-03T02:11:28;18.80;99.90
50947;DHT22;36955;47.416;7.716;2022-08-03T02:13:56;18.80;99.90
50947;DHT22;36955;47.416;7.716;2022-08-03T02:16:23;18.70;99.90
50947;DHT22;36955;47.416;7.716;2022-08-03T02:18:51;18.70;99.90
50947;DHT22;36955;47.416;7.716;2022-08-03T02:21:19;18.70;99.90
50947;DHT22;36955;47.416;7.716;2022-08-03T02:23:46;18.70;99.90
50947;DHT22;36955;47.416;7.716;2022-08-03T02:26:14;18.80;99.90
50947;DHT22;36955;47.416;7.716;2022-08-03T02:28:45;18.80;99.90
50947;DHT22;36955;47.416;7.716;2022-08-03T02:31:15;18.80;99.90
50947;DHT22;36955;47.416;7.716;2022-08-03T02:33:47;18.80;99.90
50947;DHT22;36955;47.416;7.716;2022-08-03T02:36:13;18.80;99.90
50947;DHT22;36955;47.416;7.716;2022-08-03T02:38:42;18.80;99.90
50947;DHT22;36955;47.416;7.716;2022-08-03T02:41:15;18.80;99.90
50947;DHT22;36955;47.416;7.716;2022-08-03T02:43:45;18.80;99.90
50947;DHT22;36955;47.416;7.716;2022-08-03T02:46:13;18.80;99.90
50947;DHT22;36955;47.416;7.716;2022-08-03T02:48:42;18.80;99.90
50947;DHT22;36955;47.416;7.716;2022-08-03T02:51:10;18.80;99.90
50947;DHT22;36955;47.416;7.716;2022-08-03T02:53:38;18.80;99.90
50947;DHT22;36955;47.416;7.716;2022-08-03T02:56:06;18.80;99.90
50947;DHT22;36955;47.416;7.716;2022-08-03T02:58:33;18.80;99.90
50947;DHT22;36955;47.416;7.716;2022-08-03T03:01:00;18.80;99.90
50947;DHT22;36955;47.416;7.716;2022-08-03T03:03:28;18.80;99.90
50947;DHT22;36955;47.416;7.716;2022-08-03T03:05:55;18.80;99.90
50947;DHT22;36955;47.416;7.716;2022-08-03T03:08:22;18.80;99.90
50947;DHT22;36955;47.416;7.716;2022-08-03T03:10:49;18.70;99.90
50947;DHT22;36955;47.416;7.716;2022-08-03T03:13:16;18.70;99.90
50947;DHT22;36955;47.416;7.716;2022-08-03T03:15:44;18.60;99.90
50947;DHT22;36955;47.416;7.716;2022-08-03T03:18:13;18.70;99.90
50947;DHT22;36955;47.416;7.716;2022-08-03T03:20:40;18.70;99.90
50947;DHT22;36955;47.416;7.716;2022-08-03T03:23:08;18.60;99.90
50947;DHT22;36955;47.416;7.716;2022-08-03T03:25:34;18.60;99.90
50947;DHT22;36955;47.416;7.716;2022-08-03T03:28:02;18.60;99.90
50947;DHT22;36955;47.416;7.716;2022-08-03T03:30:29;18.60;99.90
50947;DHT22;36955;47.416;7.716;2022-08-03T03:32:56;18.70;99.90
50947;DHT22;36955;47.416;7.716;2022-08-03T03:35:23;18.80;99.90
50947;DHT22;36955;47.416;7.716;2022-08-03T03:37:49;18.80;99.90
50947;DHT22;36955;47.416;7.716;2022-08-03T03:40:15;18.80;99.90
50947;DHT22;36955;47.416;7.716;2022-08-03T03:42:41;18.80;99.90
50947;DHT22;36955;47.416;7.716;2022-08-03T03:45:08;18.70;99.90
50947;DHT22;36955;47.416;7.716;2022-08-03T03:47:34;18.70;99.90
50947;DHT22;36955;47.416;7.716;2022-08-03T03:50:05;18.60;99.90
50947;DHT22;36955;47.416;7.716;2022-08-03T03:52:31;18.60;99.90
50947;DHT22;36955;47.416;7.716;2022-08-03T03:54:57;18.60;99.90
50947;DHT22;36955;47.416;7.716;2022-08-03T03:57:24;18.60;99.90
50947;DHT22;36955;47.416;7.716;2022-08-03T03:59:50;18.60;99.90
50947;DHT22;36955;47.416;7.716;2022-08-03T04:02:16;18.60;99.90
50947;DHT22;36955;47.416;7.716;2022-08-03T04:04:42;18.50;99.90
50947;DHT22;36955;47.416;7.716;2022-08-03T04:07:08;18.50;99.90
50947;DHT22;36955;47.416;7.716;2022-08-03T04:09:35;18.50;99.90
50947;DHT22;36955;47.416;7.716;2022-08-03T04:12:03;18.50;99.90
50947;DHT22;36955;47.416;7.716;2022-08-03T04:14:35;18.60;99.90
50947;DHT22;36955;47.416;7.716;2022-08-03T04:17:04;18.60;99.90
50947;DHT22;36955;47.416;7.716;2022-08-03T04:19:46;18.60;99.90
50947;DHT22;36955;47.416;7.716;2022-08-03T04:22:17;18.60;99.90
50947;DHT22;36955;47.416;7.716;2022-08-03T04:24:48;18.60;99.90
50947;DHT22;36955;47.416;7.716;2022-08-03T04:27:19;18.60;99.90
50947;DHT22;36955;47.416;7.716;2022-08-03T04:29:48;18.60;99.90
50947;DHT22;36955;47.416;7.716;2022-08-03T04:32:15;18.60;99.90
50947;DHT22;36955;47.416;7.716;2022-08-03T04:34:42;18.70;99.90
50947;DHT22;36955;47.416;7.716;2022-08-03T04:37:13;18.80;99.90
50947;DHT22;36955;47.416;7.716;2022-08-03T04:39:43;18.90;99.90
50947;DHT22;36955;47.416;7.716;2022-08-03T04:42:10;18.90;99.90
50947;DHT22;36955;47.416;7.716;2022-08-03T04:44:39;19.00;99.90
50947;DHT22;36955;47.416;7.716;2022-08-03T04:47:06;19.00;99.90
50947;DHT22;36955;47.416;7.716;2022-08-03T04:49:37;19.00;99.90
50947;DHT22;36955;47.416;7.716;2022-08-03T04:52:05;19.00;99.90
50947;DHT22;36955;47.416;7.716;2022-08-03T04:54:42;19.10;99.90
50947;DHT22;36955;47.416;7.716;2022-08-03T04:57:09;19.10;99.90
50947;DHT22;36955;47.416;7.716;2022-08-03T04:59:36;19.10;99.90
50947;DHT22;36955;47.416;7.716;2022-08-03T05:02:02;19.10;99.90
50947;DHT22;36955;47.416;7.716;2022-08-03T05:04:28;19.20;99.90
50947;DHT22;36955;47.416;7.716;2022-08-03T05:06:54;19.20;99.90
50947;DHT22;36955;47.416;7.716;2022-08-03T05:09:20;19.30;99.90
50947;DHT22;36955;47.416;7.716;2022-08-03T05:11:46;19.30;99.90
50947;DHT22;36955;47.416;7.716;2022-08-03T05:14:12;19.40;99.90
50947;DHT22;36955;47.416;7.716;2022-08-03T05:16:38;19.40;99.90
50947;DHT22;36955;47.416;7.716;2022-08-03T05:19:04;19.50;99.90
50947;DHT22;36955;47.416;7.716;2022-08-03T05:21:30;19.60;99.90
50947;DHT22;36955;47.416;7.716;2022-08-03T05:23:56;19.70;99.90
50947;DHT22;36955;47.416;7.716;2022-08-03T05:26:22;19.70;99.90
50947;DHT22;36955;47.416;7.716;2022-08-03T05:28:48;19.80;99.90
50947;DHT22;36955;47.416;7.716;2022-08-03T05:31:14;19.90;99.90
50947;DHT22;36955;47.416;7.716;2022-08-03T05:33:40;20.00;99.90
50947;DHT22;36955;47.416;7.716;2022-08-03T05:36:06;20.10;99.90
50947;DHT22;36955;47.416;7.716;2022-08-03T05:38:33;20.20;99.90
50947;DHT22;36955;47.416;7.716;2022-08-03T05:40:59;20.40;99.90
50947;DHT22;36955;47.416;7.716;2022-08-03T05:43:25;20.60;99.90
50947;DHT22;36955;47.416;7.716;2022-08-03T05:45:51;20.80;99.90
50947;DHT22;36955;47.416;7.716;2022-08-03T05:48:17;20.90;99.90
50947;DHT22;36955;47.416;7.716;2022-08-03T05:50:43;21.00;99.90
50947;DHT22;36955;47.416;7.716;2022-08-03T05:53:09;21.10;99.90
50947;DHT22;36955;47.416;7.716;2022-08-03T05:55:35;21.30;99.90
50947;DHT22;36955;47.416;7.716;2022-08-03T05:58:01;21.40;99.90
50947;DHT22;36955;47.416;7.716;2022-08-03T06:00:27;21.50;99.90
50947;DHT22;36955;47.416;7.716;2022-08-03T06:02:53;21.70;99.90
50947;DHT22;36955;47.416;7.716;2022-08-03T06:05:19;21.70;99.90
50947;DHT22;36955;47.416;7.716;2022-08-03T06:07:45;21.80;99.90
50947;DHT22;36955;47.416;7.716;2022-08-03T06:10:11;21.90;99.90
50947;DHT22;36955;47.416;7.716;2022-08-03T06:12:37;21.90;99.90
50947;DHT22;36955;47.416;7.716;2022-08-03T06:15:04;21.90;99.90
50947;DHT22;36955;47.416;7.716;2022-08-03T06:17:30;22.00;99.90
50947;DHT22;36955;47.416;7.716;2022-08-03T06:19:56;22.00;99.90
50947;DHT22;36955;47.416;7.716;2022-08-03T06:22:22;22.00;99.90
50947;DHT22;36955;47.416;7.716;2022-08-03T06:24:48;22.10;99.90
50947;DHT22;36955;47.416;7.716;2022-08-03T06:27:14;22.10;99.90
50947;DHT22;36955;47.416;7.716;2022-08-03T06:29:41;22.20;99.90
50947;DHT22;36955;47.416;7.716;2022-08-03T06:32:07;22.20;99.90
50947;DHT22;36955;47.416;7.716;2022-08-03T06:34:33;22.30;99.90
50947;DHT22;36955;47.416;7.716;2022-08-03T06:36:59;22.40;99.90
50947;DHT22;36955;47.416;7.716;2022-08-03T06:39:25;22.40;99.90
50947;DHT22;36955;47.416;7.716;2022-08-03T06:41:52;22.50;99.90
50947;DHT22;36955;47.416;7.716;2022-08-03T06:44:18;22.50;99.90
50947;DHT22;36955;47.416;7.716;2022-08-03T06:46:44;22.60;99.90
50947;DHT22;36955;47.416;7.716;2022-08-03T06:49:10;22.60;99.90
50947;DHT22;36955;47.416;7.716;2022-08-03T06:51:36;22.60;99.90
50947;DHT22;36955;47.416;7.716;2022-08-03T06:54:02;22.70;99.90
50947;DHT22;36955;47.416;7.716;2022-08-03T06:56:28;22.80;99.90
50947;DHT22;36955;47.416;7.716;2022-08-03T06:58:54;22.80;99.90
50947;DHT22;36955;47.416;7.716;2022-08-03T07:01:20;22.90;99.90
50947;DHT22;36955;47.416;7.716;2022-08-03T07:03:46;23.00;99.90
50947;DHT22;36955;47.416;7.716;2022-08-03T07:06:12;23.10;99.90
50947;DHT22;36955;47.416;7.716;2022-08-03T07:08:38;23.30;99.90
50947;DHT22;36955;47.416;7.716;2022-08-03T07:11:04;23.40;99.90
50947;DHT22;36955;47.416;7.716;2022-08-03T07:13:30;23.40;99.90
50947;DHT22;36955;47.416;7.716;2022-08-03T07:15:56;23.50;99.90
50947;DHT22;36955;47.416;7.716;2022-08-03T07:18:22;23.60;99.90
50947;DHT22;36955;47.416;7.716;2022-08-03T07:20:48;23.70;99.90
50947;DHT22;36955;47.416;7.716;2022-08-03T07:23:14;23.80;99.90
50947;DHT22;36955;47.416;7.716;2022-08-03T07:25:40;23.90;99.90
50947;DHT22;36955;47.416;7.716;2022-08-03T07:28:07;24.00;99.90
50947;DHT22;36955;47.416;7.716;2022-08-03T07:30:33;24.00;99.90
50947;DHT22;36955;47.416;7.716;2022-08-03T07:32:59;24.10;99.90
50947;DHT22;36955;47.416;7.716;2022-08-03T07:35:25;24.10;99.90
50947;DHT22;36955;47.416;7.716;2022-08-03T07:37:52;24.20;99.90
50947;DHT22;36955;47.416;7.716;2022-08-03T07:40:18;24.30;99.90
50947;DHT22;36955;47.416;7.716;2022-08-03T07:42:44;24.30;99.90
50947;DHT22;36955;47.416;7.716;2022-08-03T07:45:10;24.40;99.90
50947;DHT22;36955;47.416;7.716;2022-08-03T07:47:36;24.40;99.90
50947;DHT22;36955;47.416;7.716;2022-08-03T07:50:04;24.50;99.90
50947;DHT22;36955;47.416;7.716;2022-08-03T07:52:31;24.70;99.90
50947;DHT22;36955;47.416;7.716;2022-08-03T07:54:57;24.80;99.90
50947;DHT22;36955;47.416;7.716;2022-08-03T07:57:23;24.90;99.90
50947;DHT22;36955;47.416;7.716;2022-08-03T07:59:50;25.00;99.90
50947;DHT22;36955;47.416;7.716;2022-08-03T08:02:16;25.10;99.90
50947;DHT22;36955;47.416;7.716;2022-08-03T08:04:42;25.20;99.90
50947;DHT22;36955;47.416;7.716;2022-08-03T08:07:08;25.30;99.90
50947;DHT22;36955;47.416;7.716;2022-08-03T08:09:34;25.40;99.90
50947;DHT22;36955;47.416;7.716;2022-08-03T08:12:00;25.50;99.90
50947;DHT22;36955;47.416;7.716;2022-08-03T08:14:26;25.60;99.90
50947;DHT22;36955;47.416;7.716;2022-08-03T08:16:52;25.60;99.90
50947;DHT22;36955;47.416;7.716;2022-08-03T08:19:18;25.70;99.90
50947;DHT22;36955;47.416;7.716;2022-08-03T08:21:44;25.70;99.90
50947;DHT22;36955;47.416;7.716;2022-08-03T08:24:10;25.80;99.90
50947;DHT22;36955;47.416;7.716;2022-08-03T08:26:36;25.90;99.90
50947;DHT22;36955;47.416;7.716;2022-08-03T08:29:03;26.00;99.90
50947;DHT22;36955;47.416;7.716;2022-08-03T08:31:29;26.10;99.90
50947;DHT22;36955;47.416;7.716;2022-08-03T08:33:55;26.10;99.90
50947;DHT22;36955;47.416;7.716;2022-08-03T08:36:21;26.10;99.90
50947;DHT22;36955;47.416;7.716;2022-08-03T08:38:47;26.20;99.90
50947;DHT22;36955;47.416;7.716;2022-08-03T08:41:14;26.30;99.90
50947;DHT22;36955;47.416;7.716;2022-08-03T08:43:41;26.40;99.90
50947;DHT22;36955;47.416;7.716;2022-08-03T08:46:11;26.50;99.90
50947;DHT22;36955;47.416;7.716;2022-08-03T08:48:40;26.60;99.90
50947;DHT22;36955;47.416;7.716;2022-08-03T08:51:08;26.70;99.90
50947;DHT22;36955;47.416;7.716;2022-08-03T08:53:36;26.80;99.90
50947;DHT22;36955;47.416;7.716;2022-08-03T08:56:03;26.90;99.90
50947;DHT22;36955;47.416;7.716;2022-08-03T08:58:36;27.00;99.90
50947;DHT22;36955;47.416;7.716;2022-08-03T09:01:03;27.00;99.90
50947;DHT22;36955;47.416;7.716;2022-08-03T09:03:31;27.00;99.90
50947;DHT22;36955;47.416;7.716;2022-08-03T09:05:59;27.00;99.90
50947;DHT22;36955;47.416;7.716;2022-08-03T09:08:25;27.00;99.90
50947;DHT22;36955;47.416;7.716;2022-08-03T09:10:51;27.10;99.90
50947;DHT22;36955;47.416;7.716;2022-08-03T09:13:17;27.20;99.90
50947;DHT22;36955;47.416;7.716;2022-08-03T09:15:44;27.30;99.90
50947;DHT22;36955;47.416;7.716;2022-08-03T09:18:10;27.30;99.90
50947;DHT22;36955;47.416;7.716;2022-08-03T09:20:36;27.30;99.90
50947;DHT22;36955;47.416;7.716;2022-08-03T09:23:04;27.50;99.90
50947;DHT22;36955;47.416;7.716;2022-08-03T09:25:36;27.60;99.90
50947;DHT22;36955;47.416;7.716;2022-08-03T09:30:34;27.70;99.90
50947;DHT22;36955;47.416;7.716;2022-08-03T09:33:05;27.80;99.90
50947;DHT22;36955;47.416;7.716;2022-08-03T09:35:32;27.90;99.90
50947;DHT22;36955;47.416;7.716;2022-08-03T09:38:12;27.90;99.90
50947;DHT22;36955;47.416;7.716;2022-08-03T09:40:38;27.80;99.90
50947;DHT22;36955;47.416;7.716;2022-08-03T09:43:05;27.80;99.90
50947;DHT22;36955;47.416;7.716;2022-08-03T09:45:31;27.70;99.90
50947;DHT22;36955;47.416;7.716;2022-08-03T09:47:57;27.80;99.90
50947;DHT22;36955;47.416;7.716;2022-08-03T09:50:50;27.70;99.90
50947;DHT22;36955;47.416;7.716;2022-08-03T09:53:19;27.80;99.90
50947;DHT22;36955;47.416;7.716;2022-08-03T09:56:03;27.90;99.90
50947;DHT22;36955;47.416;7.716;2022-08-03T09:58:30;28.00;99.90
50947;DHT22;36955;47.416;7.716;2022-08-03T10:00:58;28.10;99.90
50947;DHT22;36955;47.416;7.716;2022-08-03T10:03:27;28.20;99.90
50947;DHT22;36955;47.416;7.716;2022-08-03T10:05:54;28.20;99.90
50947;DHT22;36955;47.416;7.716;2022-08-03T10:08:21;28.20;99.90
50947;DHT22;36955;47.416;7.716;2022-08-03T10:10:49;28.20;99.90
50947;DHT22;36955;47.416;7.716;2022-08-03T10:13:17;28.20;99.90
50947;DHT22;36955;47.416;7.716;2022-08-03T10:15:44;28.10;99.90
50947;DHT22;36955;47.416;7.716;2022-08-03T10:18:10;28.10;99.90
50947;DHT22;36955;47.416;7.716;2022-08-03T10:20:42;28.10;99.90
50947;DHT22;36955;47.416;7.716;2022-08-03T10:23:10;28.00;99.90
50947;DHT22;36955;47.416;7.716;2022-08-03T10:25:37;28.20;99.90
50947;DHT22;36955;47.416;7.716;2022-08-03T10:28:04;28.20;99.90
50947;DHT22;36955;47.416;7.716;2022-08-03T10:30:31;28.10;99.90
50947;DHT22;36955;47.416;7.716;2022-08-03T10:33:02;28.10;99.90
50947;DHT22;36955;47.416;7.716;2022-08-03T10:35:30;28.20;99.90
50947;DHT22;36955;47.416;7.716;2022-08-03T10:37:58;28.20;99.90
50947;DHT22;36955;47.416;7.716;2022-08-03T10:40:27;28.30;99.90
50947;DHT22;36955;47.416;7.716;2022-08-03T10:42:56;28.30;99.80
50947;DHT22;36955;47.416;7.716;2022-08-03T10:45:25;28.30;99.90
50947;DHT22;36955;47.416;7.716;2022-08-03T10:47:53;28.40;99.90
50947;DHT22;36955;47.416;7.716;2022-08-03T10:50:22;28.60;99.90
50947;DHT22;36955;47.416;7.716;2022-08-03T10:53:00;28.70;99.70
50947;DHT22;36955;47.416;7.716;2022-08-03T10:58:04;28.70;99.90
50947;DHT22;36955;47.416;7.716;2022-08-03T11:00:48;28.80;99.60
50947;DHT22;36955;47.416;7.716;2022-08-03T11:03:14;28.80;99.40
50947;DHT22;36955;47.416;7.716;2022-08-03T11:05:47;28.80;99.10
50947;DHT22;36955;47.416;7.716;2022-08-03T11:08:31;28.70;98.50
50947;DHT22;36955;47.416;7.716;2022-08-03T11:11:00;28.60;99.50
50947;DHT22;36955;47.416;7.716;2022-08-03T11:13:28;28.70;99.90
50947;DHT22;36955;47.416;7.716;2022-08-03T11:15:55;28.90;99.90
50947;DHT22;36955;47.416;7.716;2022-08-03T11:18:22;29.10;98.80
50947;DHT22;36955;47.416;7.716;2022-08-03T11:20:57;29.10;99.00
50947;DHT22;36955;47.416;7.716;2022-08-03T11:23:44;29.10;98.80
50947;DHT22;36955;47.416;7.716;2022-08-03T11:26:11;29.10;98.60
50947;DHT22;36955;47.416;7.716;2022-08-03T11:28:38;29.00;98.70
50947;DHT22;36955;47.416;7.716;2022-08-03T11:34:05;28.90;98.60
50947;DHT22;36955;47.416;7.716;2022-08-03T11:39:16;28.90;98.70
50947;DHT22;36955;47.416;7.716;2022-08-03T11:41:42;28.90;98.40
50947;DHT22;36955;47.416;7.716;2022-08-03T11:44:08;29.00;97.50
50947;DHT22;36955;47.416;7.716;2022-08-03T11:46:37;28.90;99.50
50947;DHT22;36955;47.416;7.716;2022-08-03T11:49:05;29.00;98.40
50947;DHT22;36955;47.416;7.716;2022-08-03T11:51:31;29.10;97.40
50947;DHT22;36955;47.416;7.716;2022-08-03T11:53:59;29.20;97.40
50947;DHT22;36955;47.416;7.716;2022-08-03T11:56:27;29.20;98.00
50947;DHT22;36955;47.416;7.716;2022-08-03T11:58:55;29.20;97.60
50947;DHT22;36955;47.416;7.716;2022-08-03T12:01:23;29.30;98.00
50947;DHT22;36955;47.416;7.716;2022-08-03T12:03:50;29.20;97.90
50947;DHT22;36955;47.416;7.716;2022-08-03T12:06:17;29.20;97.10
50947;DHT22;36955;47.416;7.716;2022-08-03T12:08:44;29.40;98.90
50947;DHT22;36955;47.416;7.716;2022-08-03T12:11:13;29.70;97.40
50947;DHT22;36955;47.416;7.716;2022-08-03T12:13:47;29.90;97.80
50947;DHT22;36955;47.416;7.716;2022-08-03T12:16:18;30.00;98.30
50947;DHT22;36955;47.416;7.716;2022-08-03T12:18:53;30.20;97.40
50947;DHT22;36955;47.416;7.716;2022-08-03T12:21:19;30.20;97.30
50947;DHT22;36955;47.416;7.716;2022-08-03T12:23:45;30.20;97.10
50947;DHT22;36955;47.416;7.716;2022-08-03T12:26:11;30.30;98.40
50947;DHT22;36955;47.416;7.716;2022-08-03T12:28:46;30.60;96.60
50947;DHT22;36955;47.416;7.716;2022-08-03T12:31:12;30.70;97.30
50947;DHT22;36955;47.416;7.716;2022-08-03T12:33:59;30.80;96.00
50947;DHT22;36955;47.416;7.716;2022-08-03T12:36:26;30.60;95.80
50947;DHT22;36955;47.416;7.716;2022-08-03T12:39:00;30.60;95.30
50947;DHT22;36955;47.416;7.716;2022-08-03T12:41:28;30.70;95.40
50947;DHT22;36955;47.416;7.716;2022-08-03T12:43:54;30.60;95.40
50947;DHT22;36955;47.416;7.716;2022-08-03T12:46:21;30.50;95.90
50947;DHT22;36955;47.416;7.716;2022-08-03T12:49:13;30.50;96.00
50947;DHT22;36955;47.416;7.716;2022-08-03T12:54:09;30.70;95.60
50947;DHT22;36955;47.416;7.716;2022-08-03T12:57:29;30.70;94.10
50947;DHT22;36955;47.416;7.716;2022-08-03T12:59:47;30.80;96.00
50947;DHT22;36955;47.416;7.716;2022-08-03T13:02:17;31.10;95.10
50947;DHT22;36955;47.416;7.716;2022-08-03T13:04:45;31.20;95.30
50947;DHT22;36955;47.416;7.716;2022-08-03T13:07:12;31.20;94.30
50947;DHT22;36955;47.416;7.716;2022-08-03T13:09:44;31.30;93.20
50947;DHT22;36955;47.416;7.716;2022-08-03T13:12:18;31.20;92.90
50947;DHT22;36955;47.416;7.716;2022-08-03T13:14:47;31.20;93.00
50947;DHT22;36955;47.416;7.716;2022-08-03T13:17:14;31.30;93.10
50947;DHT22;36955;47.416;7.716;2022-08-03T13:19:40;31.30;92.90
50947;DHT22;36955;47.416;7.716;2022-08-03T13:22:17;31.30;93.00
50947;DHT22;36955;47.416;7.716;2022-08-03T13:24:45;31.40;91.80
50947;DHT22;36955;47.416;7.716;2022-08-03T13:27:13;31.60;92.40
50947;DHT22;36955;47.416;7.716;2022-08-03T13:29:39;31.80;92.30
50947;DHT22;36955;47.416;7.716;2022-08-03T13:32:06;32.00;92.00
50947;DHT22;36955;47.416;7.716;2022-08-03T13:34:32;32.20;92.90
50947;DHT22;36955;47.416;7.716;2022-08-03T13:36:58;32.50;93.00
50947;DHT22;36955;47.416;7.716;2022-08-03T13:39:24;32.80;91.40
50947;DHT22;36955;47.416;7.716;2022-08-03T13:41:50;32.90;91.70
50947;DHT22;36955;47.416;7.716;2022-08-03T13:44:16;33.00;90.40
50947;DHT22;36955;47.416;7.716;2022-08-03T13:46:42;33.00;92.20
50947;DHT22;36955;47.416;7.716;2022-08-03T13:49:08;33.00;90.20
50947;DHT22;36955;47.416;7.716;2022-08-03T13:51:34;33.10;90.50
50947;DHT22;36955;47.416;7.716;2022-08-03T13:54:00;33.10;89.60
50947;DHT22;36955;47.416;7.716;2022-08-03T13:56:27;33.20;88.50
50947;DHT22;36955;47.416;7.716;2022-08-03T13:58:54;33.20;88.90
50947;DHT22;36955;47.416;7.716;2022-08-03T14:01:20;33.30;89.50
50947;DHT22;36955;47.416;7.716;2022-08-03T14:03:47;33.50;91.20
50947;DHT22;36955;47.416;7.716;2022-08-03T14:06:13;33.70;89.40
50947;DHT22;36955;47.416;7.716;2022-08-03T14:08:39;33.80;87.50
50947;DHT22;36955;47.416;7.716;2022-08-03T14:11:06;33.90;88.00
50947;DHT22;36955;47.416;7.716;2022-08-03T14:13:32;34.00;86.30
50947;DHT22;36955;47.416;7.716;2022-08-03T14:15:58;34.10;91.70
50947;DHT22;36955;47.416;7.716;2022-08-03T14:18:24;34.30;85.90
50947;DHT22;36955;47.416;7.716;2022-08-03T14:20:50;34.00;85.70
50947;DHT22;36955;47.416;7.716;2022-08-03T14:23:16;33.70;85.40
50947;DHT22;36955;47.416;7.716;2022-08-03T14:25:43;33.60;88.90
50947;DHT22;36955;47.416;7.716;2022-08-03T14:28:09;33.60;87.70
50947;DHT22;36955;47.416;7.716;2022-08-03T14:30:35;33.70;88.40
50947;DHT22;36955;47.416;7.716;2022-08-03T14:33:01;34.00;87.40
50947;DHT22;36955;47.416;7.716;2022-08-03T14:35:27;34.20;86.50
50947;DHT22;36955;47.416;7.716;2022-08-03T14:37:53;34.40;82.90
50947;DHT22;36955;47.416;7.716;2022-08-03T14:40:19;34.40;83.10
50947;DHT22;36955;47.416;7.716;2022-08-03T14:42:45;34.60;85.40
50947;DHT22;36955;47.416;7.716;2022-08-03T14:45:11;34.70;83.60
50947;DHT22;36955;47.416;7.716;2022-08-03T14:47:38;35.00;85.40
50947;DHT22;36955;47.416;7.716;2022-08-03T14:50:06;35.10;80.30
50947;DHT22;36955;47.416;7.716;2022-08-03T14:52:32;34.40;82.10
50947;DHT22;36955;47.416;7.716;2022-08-03T14:54:59;34.00;83.40
50947;DHT22;36955;47.416;7.716;2022-08-03T14:57:25;34.00;82.70
50947;DHT22;36955;47.416;7.716;2022-08-03T14:59:52;34.00;82.60
50947;DHT22;36955;47.416;7.716;2022-08-03T15:02:21;33.90;81.30
50947;DHT22;36955;47.416;7.716;2022-08-03T15:04:47;33.90;82.60
50947;DHT22;36955;47.416;7.716;2022-08-03T15:07:13;34.00;81.30
50947;DHT22;36955;47.416;7.716;2022-08-03T15:09:39;33.90;83.00
50947;DHT22;36955;47.416;7.716;2022-08-03T15:12:05;34.00;80.70
50947;DHT22;36955;47.416;7.716;2022-08-03T15:14:32;34.00;80.10
50947;DHT22;36955;47.416;7.716;2022-08-03T15:16:58;34.20;84.40
50947;DHT22;36955;47.416;7.716;2022-08-03T15:19:24;34.40;79.40
50947;DHT22;36955;47.416;7.716;2022-08-03T15:21:50;34.00;79.80
50947;DHT22;36955;47.416;7.716;2022-08-03T15:24:16;33.70;78.40
50947;DHT22;36955;47.416;7.716;2022-08-03T15:26:42;33.60;81.50
50947;DHT22;36955;47.416;7.716;2022-08-03T15:29:08;33.70;81.60
50947;DHT22;36955;47.416;7.716;2022-08-03T15:31:34;33.90;81.20
50947;DHT22;36955;47.416;7.716;2022-08-03T15:34:00;34.30;83.90
50947;DHT22;36955;47.416;7.716;2022-08-03T15:36:26;34.50;77.90
50947;DHT22;36955;47.416;7.716;2022-08-03T15:38:52;34.60;78.10
50947;DHT22;36955;47.416;7.716;2022-08-03T15:41:18;34.80;80.70
50947;DHT22;36955;47.416;7.716;2022-08-03T15:43:44;34.90;77.40
50947;DHT22;36955;47.416;7.716;2022-08-03T15:46:11;34.70;79.60
50947;DHT22;36955;47.416;7.716;2022-08-03T15:48:38;34.60;77.00
50947;DHT22;36955;47.416;7.716;2022-08-03T15:51:05;34.50;76.30
50947;DHT22;36955;47.416;7.716;2022-08-03T15:53:31;34.30;79.20